Time;durP1;ratioP1;P1;durP2;ratioP2;P2;SDS_P1;SDS_P2;PMS_P1;PMS_P2;Temp;Humidity;BMP_temperature;BMP_pressure;BME280_temperature;BME280_humidity;BME280_pressure;Samples;Min_cycle;Max_cycle;Signal;HPM_P1;HPM_P2
2021/08/20 00:00:42;;;;;;;;;7.33;6.00;;;;;22.23;51.97;98469.50;4881632;28;102553;-87
2021/08/20 00:03:10;;;;;;;;;4.00;3.67;;;;;22.23;51.95;98466.75;4885832;28;102443;-87
2021/08/20 00:05:37;;;;;;;;;9.00;7.00;;;;;22.21;51.86;98463.44;4879973;28;108673;-87
2021/08/20 00:08:07;;;;;;;;;6.67;6.00;;;;;22.23;52.00;98458.50;4888173;28;103626;-87
2021/08/20 00:10:42;;;;;;;;;5.00;5.00;;;;;22.22;51.78;98461.50;4885278;28;102740;-86
2021/08/20 00:13:14;;;;;;;;;5.33;5.33;;;;;22.22;51.96;98462.34;4888449;28;102573;-86
2021/08/20 00:15:48;;;;;;;;;5.00;4.00;;;;;22.22;51.68;98464.25;4877027;28;103154;-87
2021/08/20 00:18:21;;;;;;;;;5.00;5.00;;;;;22.21;51.69;98454.34;4896563;28;102419;-87
2021/08/20 00:20:54;;;;;;;;;6.33;5.00;;;;;22.21;51.88;98468.94;4900499;28;103579;-87
2021/08/20 00:23:30;;;;;;;;;4.33;4.00;;;;;22.21;51.92;98463.44;4918226;28;103739;-87
2021/08/20 00:26:04;;;;;;;;;4.67;4.67;;;;;22.21;51.56;98462.59;4915056;28;104089;-87
2021/08/20 00:28:42;;;;;;;;;5.67;5.33;;;;;22.20;51.93;98453.50;4910255;28;105299;-87
2021/08/20 00:31:14;;;;;;;;;6.33;6.00;;;;;22.21;51.59;98466.19;4900661;28;103842;-87
2021/08/20 00:33:47;;;;;;;;;7.67;4.67;;;;;22.20;51.75;98459.03;4914368;28;102458;-87
2021/08/20 00:36:27;;;;;;;;;4.67;4.33;;;;;22.20;51.76;98464.53;4900207;28;108089;-87
2021/08/20 00:39:01;;;;;;;;;5.00;4.67;;;;;22.19;51.55;98454.66;4846428;28;102831;-87
2021/08/20 00:41:46;;;;;;;;;6.00;5.33;;;;;22.13;51.80;98449.41;4912942;28;102596;-86
2021/08/20 00:44:18;;;;;;;;;4.67;4.67;;;;;22.18;51.81;98455.75;4911447;28;102610;-86
2021/08/20 00:46:45;;;;;;;;;6.00;5.67;;;;;22.18;52.07;98458.50;4899975;28;104121;-87
2021/08/20 00:49:13;;;;;;;;;5.00;5.00;;;;;22.17;51.75;98448.56;4910473;28;105695;-87
2021/08/20 00:51:40;;;;;;;;;5.33;4.33;;;;;22.18;51.84;98460.44;4888568;28;102424;-87
2021/08/20 00:54:09;;;;;;;;;4.33;4.33;;;;;22.17;52.13;98451.34;4908390;28;102756;-87
2021/08/20 00:56:37;;;;;;;;;6.00;5.00;;;;;22.17;51.34;98459.59;4905042;28;104199;-86
2021/08/20 00:59:05;;;;;;;;;4.33;4.00;;;;;22.17;51.87;98459.59;4902467;28;102976;-87
2021/08/20 01:01:34;;;;;;;;;5.00;4.33;;;;;22.18;51.69;98460.44;4830991;28;102501;-87
2021/08/20 01:04:01;;;;;;;;;6.00;5.00;;;;;22.15;51.96;98450.78;4821823;28;102982;-87
2021/08/20 01:06:29;;;;;;;;;6.00;4.67;;;;;22.15;52.13;98456.28;4907544;28;104099;-87
2021/08/20 01:08:56;;;;;;;;;4.00;4.00;;;;;22.16;51.93;98457.94;4904078;28;102628;-87
2021/08/20 01:11:27;;;;;;;;;5.33;4.00;;;;;22.15;51.98;98461.78;4921720;28;102523;-87
2021/08/20 01:14:02;;;;;;;;;5.00;4.00;;;;;22.14;51.84;98454.66;4872174;28;102631;-86
2021/08/20 01:16:35;;;;;;;;;5.67;4.67;;;;;22.14;51.76;98462.91;4892037;28;103061;-87
2021/08/20 01:19:07;;;;;;;;;5.00;5.00;;;;;22.14;51.99;98471.19;4909072;28;102542;-87
2021/08/20 01:21:40;;;;;;;;;5.00;5.00;;;;;22.15;51.93;98466.50;4922113;28;102415;-87
2021/08/20 01:24:15;;;;;;;;;4.00;4.00;;;;;22.15;51.85;98461.78;4887660;28;102573;-87
2021/08/20 01:26:52;;;;;;;;;5.00;5.00;;;;;22.14;51.91;98471.19;4895625;28;103168;-86
2021/08/20 01:29:24;;;;;;;;;5.00;5.00;;;;;22.15;51.62;98475.56;4905487;28;102518;-87
2021/08/20 01:31:56;;;;;;;;;5.00;5.00;;;;;22.14;51.90;98465.66;4897200;28;102622;-87
2021/08/20 01:34:29;;;;;;;;;5.00;4.00;;;;;22.13;51.94;98463.19;4906835;28;103229;-87
2021/08/20 01:37:07;;;;;;;;;5.67;5.67;;;;;22.13;52.10;98466.78;4914118;28;104418;-87
2021/08/20 01:39:40;;;;;;;;;6.33;5.00;;;;;22.13;51.54;98464.00;4906340;28;102612;-87
2021/08/20 01:42:13;;;;;;;;;5.33;4.67;;;;;22.14;51.47;98460.16;4907929;28;106924;-87
2021/08/20 01:44:54;;;;;;;;;7.33;5.33;;;;;22.11;51.84;98452.44;4910412;28;102267;-87
2021/08/20 01:47:27;;;;;;;;;7.33;7.00;;;;;22.05;51.87;98445.31;4870284;28;108153;-86
2021/08/20 01:49:58;;;;;;;;;5.00;5.00;;;;;22.13;52.20;98463.19;4898096;28;103045;-86
2021/08/20 01:52:26;;;;;;;;;3.67;2.67;;;;;22.11;51.86;98457.94;4916605;28;102784;-86
2021/08/20 01:54:53;;;;;;;;;3.67;3.67;;;;;22.11;51.65;98455.19;4904447;28;105183;-87
2021/08/20 01:57:20;;;;;;;;;4.33;3.33;;;;;22.11;52.11;98448.88;4920711;28;105702;-87
2021/08/20 01:59:47;;;;;;;;;5.00;5.00;;;;;22.12;51.93;98456.84;4919093;28;103828;-87
2021/08/20 02:02:15;;;;;;;;;6.00;6.00;;;;;22.10;51.69;98447.22;4906889;28;102613;-87
2021/08/20 02:04:42;;;;;;;;;5.00;4.00;;;;;22.12;52.22;98464.28;4909234;28;103172;-87
2021/08/20 02:07:09;;;;;;;;;5.00;5.00;;;;;22.09;52.09;98454.66;4908188;28;104054;-87
2021/08/20 02:09:36;;;;;;;;;4.00;4.00;;;;;22.09;51.58;98451.91;4906131;28;104154;-86
2021/08/20 02:12:06;;;;;;;;;3.67;3.67;;;;;22.08;52.15;98447.50;4927101;28;103450;-87
2021/08/20 02:14:33;;;;;;;;;5.33;4.67;;;;;22.10;52.06;98453.56;4910288;28;103502;-87
2021/08/20 02:17:00;;;;;;;;;4.33;4.33;;;;;22.09;51.79;98449.16;4910358;28;105216;-87
2021/08/20 02:19:28;;;;;;;;;5.00;4.33;;;;;22.08;51.69;98450.25;4915405;28;102493;-86
2021/08/20 02:21:55;;;;;;;;;5.67;5.00;;;;;22.07;51.70;98440.34;4896636;28;103329;-87
2021/08/20 02:24:22;;;;;;;;;6.00;5.00;;;;;22.06;51.94;98438.72;4889205;28;105069;-87
2021/08/20 02:26:49;;;;;;;;;4.33;4.33;;;;;22.07;52.08;98448.59;4890546;28;103862;-86
2021/08/20 02:29:16;;;;;;;;;5.00;5.00;;;;;22.08;51.80;98444.75;4896636;28;102455;-87
2021/08/20 02:31:43;;;;;;;;;5.00;5.00;;;;;22.05;52.18;98441.72;4884306;28;102498;-87
2021/08/20 02:34:11;;;;;;;;;5.00;5.00;;;;;22.06;51.76;98452.47;4890990;28;102738;-87
2021/08/20 02:36:38;;;;;;;;;5.00;5.00;;;;;22.06;51.84;98446.97;4881665;28;103993;-87
2021/08/20 02:39:05;;;;;;;;;6.67;5.00;;;;;22.05;51.98;98450.81;4894393;28;104386;-87
2021/08/20 02:41:32;;;;;;;;;5.00;5.00;;;;;22.05;52.24;98445.31;4891093;28;103110;-87
2021/08/20 02:43:59;;;;;;;;;4.00;3.50;;;;;22.06;51.90;98451.66;4895514;28;102460;-87
2021/08/20 02:46:29;;;;;;;;;3.67;3.67;;;;;22.05;51.99;98461.00;4883127;28;103169;-86
2021/08/20 02:48:56;;;;;;;;;4.33;4.33;;;;;22.06;51.82;98462.66;4902124;28;110977;-87
2021/08/20 02:51:24;;;;;;;;;5.67;5.00;;;;;22.04;51.95;98459.34;4900882;28;102195;-87
2021/08/20 02:53:51;;;;;;;;;5.67;5.67;;;;;22.03;51.88;98450.25;4898550;28;102689;-87
2021/08/20 02:56:19;;;;;;;;;5.67;4.33;;;;;22.04;51.59;98454.66;4890191;28;104644;-87
2021/08/20 02:58:46;;;;;;;;;5.33;4.33;;;;;22.04;51.93;98453.84;4884306;28;102572;-87
2021/08/20 03:01:14;;;;;;;;;6.00;5.00;;;;;21.96;51.93;98446.97;4894903;28;103133;-87
2021/08/20 03:03:43;;;;;;;;;4.67;4.67;;;;;22.02;51.87;98456.06;4892127;28;102523;-87
2021/08/20 03:06:10;;;;;;;;;6.00;5.00;;;;;22.03;51.78;98452.19;4893963;28;104606;-87
2021/08/20 03:08:37;;;;;;;;;4.33;4.33;;;;;22.03;52.12;98453.00;4900289;28;104897;-87
2021/08/20 03:11:04;;;;;;;;;6.00;4.33;;;;;22.01;52.39;98449.72;4881481;28;103158;-87
2021/08/20 03:13:31;;;;;;;;;5.00;5.00;;;;;22.00;51.90;98453.59;4891918;28;102688;-87
2021/08/20 03:15:59;;;;;;;;;4.67;4.00;;;;;21.99;51.89;98460.19;4898651;28;105585;-86
2021/08/20 03:18:26;;;;;;;;;6.67;5.67;;;;;21.99;52.06;98451.94;4886172;28;102436;-87
2021/08/20 03:20:53;;;;;;;;;4.00;4.00;;;;;21.99;52.48;98462.09;4911791;28;102584;-87
2021/08/20 03:23:20;;;;;;;;;5.33;4.33;;;;;21.99;52.26;98456.59;4912976;28;102635;-87
2021/08/20 03:25:47;;;;;;;;;5.00;5.00;;;;;21.91;52.05;98446.97;4909432;28;104089;-87
2021/08/20 03:28:15;;;;;;;;;4.67;4.67;;;;;21.99;52.16;98464.88;4902763;28;102707;-87
2021/08/20 03:30:42;;;;;;;;;4.00;4.00;;;;;21.99;51.95;98457.44;4895714;28;104033;-87
2021/08/20 03:33:09;;;;;;;;;5.00;4.00;;;;;21.98;52.39;98461.28;4908260;28;102729;-87
2021/08/20 03:35:36;;;;;;;;;5.00;5.00;;;;;21.97;52.17;98456.06;4915845;28;104920;-87
2021/08/20 03:38:03;;;;;;;;;4.00;4.00;;;;;21.95;52.21;98456.34;4911075;28;104006;-87
2021/08/20 03:40:30;;;;;;;;;5.33;5.00;;;;;21.95;51.87;98456.34;4914124;28;102616;-87
2021/08/20 03:42:58;;;;;;;;;4.67;4.67;;;;;21.85;52.41;98428.78;4912288;28;102468;-87
2021/08/20 03:45:25;;;;;;;;;6.67;6.00;;;;;21.96;52.17;98458.00;4897282;28;113759;-87
2021/08/20 03:47:52;;;;;;;;;5.33;5.00;;;;;21.96;52.18;98452.50;4902371;28;102884;-87
2021/08/20 03:50:19;;;;;;;;;5.67;4.33;;;;;21.95;51.82;98461.84;4903528;28;102432;-88
2021/08/20 03:52:46;;;;;;;;;6.33;5.67;;;;;21.95;52.02;98458.25;4910481;28;102674;-87
2021/08/20 03:55:14;;;;;;;;;4.67;4.67;;;;;21.95;52.40;98464.59;4912392;28;105970;-87
2021/08/20 03:57:41;;;;;;;;;7.00;7.00;;;;;21.96;52.12;98460.75;4909165;28;102482;-87
2021/08/20 04:00:09;;;;;;;;;3.67;3.00;;;;;21.97;51.79;98465.16;4899987;28;104116;-87
2021/08/20 04:02:36;;;;;;;;;4.00;4.00;;;;;21.95;52.16;98461.84;4902383;28;103220;-87
2021/08/20 04:05:03;;;;;;;;;5.67;4.67;;;;;21.95;51.91;98461.00;4910588;28;103952;-87
2021/08/20 04:07:31;;;;;;;;;4.00;4.00;;;;;21.96;52.06;98465.44;4910269;28;102259;-87
2021/08/20 04:09:58;;;;;;;;;6.00;5.67;;;;;21.96;52.11;98466.25;4911103;28;102945;-87
2021/08/20 04:12:25;;;;;;;;;7.67;6.00;;;;;21.95;52.02;98467.34;4897460;28;102746;-87
2021/08/20 04:14:52;;;;;;;;;5.00;4.33;;;;;21.95;52.08;98472.88;4890636;28;104201;-87
2021/08/20 04:17:20;;;;;;;;;5.00;4.67;;;;;21.95;52.15;98467.34;4903706;28;111787;-87
2021/08/20 04:19:47;;;;;;;;;5.00;5.00;;;;;21.94;51.85;98465.69;4905506;28;102563;-87
2021/08/20 04:22:14;;;;;;;;;5.00;5.00;;;;;21.94;52.33;98468.44;4906686;28;103948;-87
2021/08/20 04:24:42;;;;;;;;;4.00;4.00;;;;;21.93;52.01;98468.75;4922694;28;104068;-87
2021/08/20 04:27:09;;;;;;;;;5.00;5.00;;;;;21.91;52.35;98477.25;4912841;28;102813;-87
2021/08/20 04:29:36;;;;;;;;;7.00;6.00;;;;;21.93;51.86;98466.00;4889703;28;102741;-87
2021/08/20 04:32:03;;;;;;;;;5.00;4.00;;;;;21.90;52.04;98464.56;4893676;28;102519;-87
2021/08/20 04:34:31;;;;;;;;;6.67;6.33;;;;;21.93;52.14;98469.53;4907892;28;104194;-87
2021/08/20 04:36:58;;;;;;;;;5.00;5.00;;;;;21.94;52.13;98470.38;4917519;28;102535;-87
2021/08/20 04:39:25;;;;;;;;;5.00;4.67;;;;;21.94;52.14;98478.63;4914888;28;102476;-87
2021/08/20 04:41:52;;;;;;;;;5.33;5.33;;;;;21.93;52.03;98472.28;4898644;28;103951;-87
2021/08/20 04:44:19;;;;;;;;;6.00;5.00;;;;;21.94;51.84;98470.38;4904670;28;107983;-87
2021/08/20 04:46:46;;;;;;;;;7.00;6.00;;;;;21.93;51.92;98469.53;4920530;28;102626;-87
2021/08/20 04:49:13;;;;;;;;;6.67;6.00;;;;;21.94;52.08;98470.38;4909550;28;102196;-87
2021/08/20 04:51:41;;;;;;;;;6.33;5.67;;;;;21.93;51.70;98472.28;4916429;28;102789;-87
2021/08/20 04:54:08;;;;;;;;;8.00;6.00;;;;;21.93;51.94;98468.75;4917607;28;104100;-87
2021/08/20 04:56:36;;;;;;;;;7.33;5.67;;;;;21.93;52.02;98472.28;4910311;28;102627;-86
2021/08/20 04:59:03;;;;;;;;;6.00;5.67;;;;;21.93;51.84;98477.81;4917161;28;102616;-86
2021/08/20 05:01:30;;;;;;;;;4.67;4.67;;;;;21.91;51.79;98471.75;4910354;28;103208;-90
2021/08/20 05:03:58;;;;;;;;;5.33;4.67;;;;;21.93;52.28;98475.06;4888522;28;111239;-90
2021/08/20 05:06:25;;;;;;;;;5.67;5.67;;;;;21.89;52.01;98475.84;4922658;28;102205;-90
2021/08/20 05:08:52;;;;;;;;;5.33;4.67;;;;;21.92;52.12;98483.56;4888472;28;102508;-90
2021/08/20 05:11:19;;;;;;;;;6.67;6.00;;;;;21.93;52.28;98486.06;4914526;28;102777;-90
2021/08/20 05:13:47;;;;;;;;;5.67;5.00;;;;;21.79;51.88;98468.47;4920360;28;104306;-91
2021/08/20 05:16:14;;;;;;;;;4.67;4.00;;;;;21.92;51.77;98487.16;4903405;28;103593;-90
2021/08/20 05:18:41;;;;;;;;;6.50;6.00;;;;;21.91;52.46;98482.75;4902094;28;103099;-90
2021/08/20 05:21:08;;;;;;;;;6.00;5.00;;;;;21.92;52.04;98481.66;4900475;28;103287;-90
2021/08/20 05:23:35;;;;;;;;;5.67;5.00;;;;;21.92;52.24;98484.41;4889479;28;104303;-90
2021/08/20 05:26:02;;;;;;;;;7.00;5.33;;;;;21.93;51.93;98485.25;4893848;28;103553;-90
2021/08/20 05:28:30;;;;;;;;;6.00;5.00;;;;;21.92;51.93;98489.09;4891854;28;103209;-90
2021/08/20 05:30:57;;;;;;;;;4.67;4.67;;;;;21.92;52.37;98492.66;4890702;28;102629;-90
2021/08/20 05:33:24;;;;;;;;;4.00;4.00;;;;;21.91;51.98;98499.28;4897195;28;104076;-90
2021/08/20 05:35:51;;;;;;;;;6.33;6.00;;;;;21.91;51.79;98491.00;4892097;28;102660;-90
2021/08/20 05:38:18;;;;;;;;;5.67;5.00;;;;;21.93;52.19;98493.53;4886405;28;102802;-90
2021/08/20 05:40:45;;;;;;;;;5.00;4.33;;;;;21.91;51.82;98493.75;4894258;28;102413;-91
2021/08/20 05:43:12;;;;;;;;;9.00;7.00;;;;;21.92;52.18;98498.16;4901811;28;104055;-90
2021/08/20 05:45:40;;;;;;;;;6.00;5.00;;;;;21.91;51.88;98495.69;4896509;28;102383;-90
2021/08/20 05:48:07;;;;;;;;;5.67;5.67;;;;;21.90;51.88;98497.59;4897484;28;102504;-90
2021/08/20 05:50:35;;;;;;;;;5.33;4.00;;;;;21.90;52.02;98497.59;4899775;28;102236;-90
2021/08/20 05:53:02;;;;;;;;;5.67;5.67;;;;;21.91;51.79;98498.44;4902533;28;104099;-90
2021/08/20 05:55:31;;;;;;;;;3.67;3.67;;;;;21.91;51.75;98510.28;4902566;28;102103;-91
2021/08/20 05:57:59;;;;;;;;;4.67;4.00;;;;;21.90;52.16;98505.03;4893331;28;102578;-90
2021/08/20 06:01:06;;;;;;;;;6.33;5.67;;;;;21.91;52.25;98498.44;4902201;28;102520;-90
2021/08/20 06:03:33;;;;;;;;;5.67;5.67;;;;;21.91;52.28;98501.19;4825039;28;109207;-90
2021/08/20 06:06:01;;;;;;;;;5.00;5.00;;;;;21.89;52.04;98511.63;4898422;28;102559;-91
2021/08/20 06:08:28;;;;;;;;;5.00;5.00;;;;;21.90;52.05;98507.78;4896028;28;102532;-90
2021/08/20 06:10:55;;;;;;;;;5.67;5.67;;;;;21.90;52.05;98505.03;4909042;28;102681;-90
2021/08/20 06:13:23;;;;;;;;;5.67;5.67;;;;;21.89;52.21;98501.47;4901628;28;104478;-90
2021/08/20 06:15:50;;;;;;;;;6.33;6.33;;;;;21.91;51.87;98499.28;4897217;28;102463;-90
2021/08/20 06:18:17;;;;;;;;;6.33;6.33;;;;;21.83;51.81;98494.31;4906642;28;102452;-90
2021/08/20 06:20:44;;;;;;;;;5.00;5.00;;;;;21.90;52.30;98500.38;4916022;28;102645;-90
2021/08/20 06:23:11;;;;;;;;;6.00;5.00;;;;;21.90;51.93;98503.13;4911486;28;104387;-90
2021/08/20 06:25:38;;;;;;;;;5.67;5.67;;;;;21.80;51.72;98486.59;4908027;28;102391;-90
2021/08/20 06:28:06;;;;;;;;;6.00;6.00;;;;;21.90;51.91;98503.13;4900356;28;103249;-90
2021/08/20 06:30:33;;;;;;;;;6.00;6.00;;;;;21.90;51.90;98502.28;4918675;28;102841;-90
2021/08/20 06:33:00;;;;;;;;;6.00;6.00;;;;;21.89;51.96;98501.47;4923041;28;110729;-90
2021/08/20 06:35:27;;;;;;;;;7.00;6.33;;;;;21.90;52.23;98516.06;4902162;28;102415;-90
2021/08/20 06:37:54;;;;;;;;;3.00;3.00;;;;;21.91;52.04;98503.94;4895921;28;102806;-90
2021/08/20 06:40:22;;;;;;;;;5.67;5.67;;;;;21.90;52.40;98514.13;4908331;28;102537;-90
2021/08/20 06:42:49;;;;;;;;;4.67;4.00;;;;;21.92;52.00;98506.44;4901921;28;103034;-90
2021/08/20 06:45:17;;;;;;;;;7.33;6.00;;;;;21.90;51.78;98508.63;4898588;28;102333;-90
2021/08/20 06:47:44;;;;;;;;;5.00;5.00;;;;;21.91;52.03;98518.53;4921075;28;102575;-90
2021/08/20 06:50:11;;;;;;;;;7.33;5.00;;;;;21.91;52.20;98510.28;4909240;28;102244;-90
2021/08/20 06:52:38;;;;;;;;;5.67;5.33;;;;;21.91;51.95;98507.53;4915021;28;103693;-90
2021/08/20 06:55:06;;;;;;;;;6.33;6.00;;;;;21.93;52.17;98512.81;4905470;28;102661;-90
2021/08/20 06:57:33;;;;;;;;;5.00;5.00;;;;;21.93;52.18;98502.59;4908227;28;102579;-90
2021/08/20 07:00:00;;;;;;;;;6.67;5.67;;;;;21.92;52.42;98505.59;4921428;28;102636;-90
2021/08/20 07:02:28;;;;;;;;;7.33;6.00;;;;;21.93;51.75;98508.09;4885857;28;104220;-90
2021/08/20 07:04:55;;;;;;;;;6.33;6.33;;;;;21.95;52.18;98505.06;4881134;28;104455;-91
2021/08/20 07:07:23;;;;;;;;;5.00;4.00;;;;;21.94;52.35;98508.91;4916425;28;103426;-90
2021/08/20 07:09:50;;;;;;;;;4.67;4.67;;;;;21.94;52.16;98503.41;4895972;28;102284;-90
2021/08/20 07:12:17;;;;;;;;;4.33;3.67;;;;;21.95;52.29;98510.56;4915760;28;104557;-90
2021/08/20 07:14:45;;;;;;;;;5.00;4.00;;;;;21.95;52.01;98514.16;4906155;28;105714;-90
2021/08/20 07:17:12;;;;;;;;;6.00;6.00;;;;;21.96;51.88;98509.47;4904607;28;105459;-91
2021/08/20 07:19:42;;;;;;;;;4.00;3.67;;;;;21.94;51.78;98504.25;4917710;28;102627;-90
2021/08/20 07:22:09;;;;;;;;;5.33;5.33;;;;;21.96;51.92;98507.56;4904220;28;104080;-87
2021/08/20 07:24:37;;;;;;;;;5.67;5.67;;;;;21.95;51.68;98511.41;4908528;28;103542;-87
2021/08/20 07:27:04;;;;;;;;;5.00;4.67;;;;;21.95;52.03;98522.41;4917296;28;102235;-87
2021/08/20 07:29:31;;;;;;;;;5.67;5.67;;;;;21.97;51.73;98513.91;4914546;28;102589;-87
2021/08/20 07:31:59;;;;;;;;;6.00;6.00;;;;;21.99;51.97;98523.50;4913389;28;104727;-87
2021/08/20 07:34:26;;;;;;;;;7.00;7.00;;;;;22.01;52.29;98515.81;4909357;28;102584;-86
2021/08/20 07:36:54;;;;;;;;;3.33;3.33;;;;;22.00;52.71;98514.16;4901558;28;103606;-87
2021/08/20 07:39:21;;;;;;;;;5.67;5.67;;;;;22.01;53.30;98518.56;4904338;28;102531;-86
2021/08/20 07:41:48;;;;;;;;;6.00;6.00;;;;;22.01;53.29;98515.81;4905882;28;104140;-86
2021/08/20 07:44:16;;;;;;;;;5.00;4.00;;;;;22.03;53.67;98518.28;4915068;28;103142;-86
2021/08/20 07:46:43;;;;;;;;;5.00;5.00;;;;;22.04;53.67;98522.69;4908873;28;102581;-86
2021/08/20 07:49:10;;;;;;;;;5.67;5.00;;;;;22.04;53.46;98522.69;4908905;28;102754;-86
2021/08/20 07:51:37;;;;;;;;;7.00;6.00;;;;;22.05;53.75;98527.94;4903242;28;104463;-87
2021/08/20 07:54:05;;;;;;;;;7.00;6.00;;;;;22.03;53.53;98524.59;4897748;28;102163;-86
2021/08/20 07:56:33;;;;;;;;;7.00;6.33;;;;;22.07;53.55;98527.63;4918491;28;103008;-87
2021/08/20 07:59:01;;;;;;;;;6.00;6.00;;;;;22.06;53.76;98526.84;4914910;28;102656;-86
2021/08/20 08:01:29;;;;;;;;;9.00;6.33;;;;;22.08;53.91;98526.53;4889600;28;104550;-86
2021/08/20 08:03:59;;;;;;;;;8.33;7.00;;;;;22.09;53.46;98530.94;4912974;28;102820;-86
2021/08/20 08:06:27;;;;;;;;;5.33;5.00;;;;;22.09;53.88;98529.03;4904046;28;103277;-86
2021/08/20 08:08:57;;;;;;;;;7.67;5.67;;;;;22.10;54.12;98535.34;4916818;28;102439;-86
2021/08/20 08:11:30;;;;;;;;;3.67;3.00;;;;;22.10;54.27;98530.69;4912041;28;103376;-86
2021/08/20 08:14:03;;;;;;;;;6.33;6.33;;;;;22.10;53.91;98530.69;4896317;28;104186;-87
2021/08/20 08:16:31;;;;;;;;;5.00;4.00;;;;;22.12;53.83;98527.63;4901467;28;104428;-86
2021/08/20 08:18:59;;;;;;;;;5.33;5.00;;;;;22.12;54.21;98533.13;4914407;28;102583;-86
2021/08/20 08:21:26;;;;;;;;;5.67;5.67;;;;;22.13;54.20;98538.38;4896557;28;104318;-88
2021/08/20 08:23:53;;;;;;;;;5.00;5.00;;;;;22.13;54.03;98534.78;4914690;28;103363;-86
2021/08/20 08:26:23;;;;;;;;;5.33;5.00;;;;;22.16;53.67;98532.31;4908111;28;105215;-87
2021/08/20 08:28:51;;;;;;;;;5.33;5.33;;;;;22.17;54.03;98531.22;4911350;28;102640;-87
2021/08/20 08:31:19;;;;;;;;;5.00;5.00;;;;;22.12;54.27;98522.94;4905801;28;104320;-87
2021/08/20 08:33:46;;;;;;;;;5.67;5.00;;;;;22.17;54.74;98533.13;4907704;28;102982;-87
2021/08/20 08:36:14;;;;;;;;;4.33;4.33;;;;;22.17;54.99;98536.72;4923741;28;103082;-87
2021/08/20 08:38:41;;;;;;;;;5.67;5.67;;;;;22.18;55.51;98532.03;4905254;28;102380;-87
2021/08/20 08:41:08;;;;;;;;;6.00;6.00;;;;;22.19;55.55;98533.69;4902729;28;103576;-87
2021/08/20 08:43:35;;;;;;;;;5.33;5.00;;;;;22.19;55.40;98531.78;4909194;28;102348;-87
2021/08/20 08:46:04;;;;;;;;;5.00;5.00;;;;;22.19;55.21;98529.00;4899228;28;103744;-87
2021/08/20 08:48:33;;;;;;;;;6.33;4.67;;;;;22.19;55.99;98526.25;4927108;28;102416;-87
2021/08/20 08:51:00;;;;;;;;;5.67;5.67;;;;;22.21;55.92;98540.56;4869819;28;105895;-87
2021/08/20 08:53:27;;;;;;;;;6.33;5.67;;;;;22.22;55.95;98533.13;4911777;28;105557;-87
2021/08/20 08:55:57;;;;;;;;;6.00;5.00;;;;;22.21;55.51;98524.03;4907162;28;102527;-87
2021/08/20 08:58:25;;;;;;;;;4.33;4.33;;;;;22.24;55.69;98530.94;4895651;28;102713;-87
2021/08/20 09:00:52;;;;;;;;;6.33;6.00;;;;;22.25;55.51;98535.31;4903538;28;104213;-87
2021/08/20 09:03:24;;;;;;;;;6.00;5.33;;;;;22.26;55.80;98534.22;4893339;28;102795;-87
2021/08/20 09:05:52;;;;;;;;;5.00;5.00;;;;;22.27;55.42;98541.38;4896211;28;102380;-87
2021/08/20 09:08:22;;;;;;;;;7.33;6.67;;;;;22.26;56.03;98534.22;4908992;28;103796;-87
2021/08/20 09:11:00;;;;;;;;;5.67;5.33;;;;;22.29;55.64;98535.59;4897101;28;104225;-87
2021/08/20 09:13:29;;;;;;;;;5.67;5.33;;;;;22.31;56.08;98536.13;4918876;28;102685;-87
2021/08/20 09:16:12;;;;;;;;;6.00;6.00;;;;;22.32;55.78;98541.38;4917254;28;102681;-87
2021/08/20 09:18:40;;;;;;;;;5.67;5.67;;;;;22.33;55.50;98533.94;4908396;28;103665;-86
2021/08/20 09:21:07;;;;;;;;;5.67;5.67;;;;;22.34;55.86;98538.31;4902724;28;110128;-86
2021/08/20 09:23:35;;;;;;;;;5.00;5.00;;;;;22.35;55.58;98539.97;4901541;28;102426;-87
2021/08/20 09:26:03;;;;;;;;;6.00;6.00;;;;;22.35;55.47;98531.72;4901977;28;102558;-87
2021/08/20 09:28:31;;;;;;;;;6.00;6.00;;;;;22.36;55.89;98533.38;4901634;28;104272;-87
2021/08/20 09:31:06;;;;;;;;;6.33;5.67;;;;;22.37;55.79;98532.28;4886588;28;103723;-87
2021/08/20 09:33:36;;;;;;;;;6.33;6.00;;;;;22.36;55.47;98520.44;4899918;28;102531;-87
2021/08/20 09:36:13;;;;;;;;;4.33;3.67;;;;;22.39;55.77;98527.31;4898575;28;102312;-86
2021/08/20 09:38:42;;;;;;;;;7.00;6.67;;;;;22.40;55.59;98520.69;4889426;28;102446;-87
2021/08/20 09:41:19;;;;;;;;;8.00;7.00;;;;;22.41;55.77;98531.44;4891201;28;108741;-88
2021/08/20 09:43:49;;;;;;;;;8.00;6.33;;;;;22.33;55.62;98506.41;4839415;28;104091;-87
2021/08/20 09:46:20;;;;;;;;;7.00;7.00;;;;;22.43;56.10;98523.72;4892916;28;102317;-86
2021/08/20 09:48:49;;;;;;;;;6.67;6.33;;;;;22.44;56.00;98516.28;4882189;28;103431;-87
2021/08/20 09:51:37;;;;;;;;;7.00;6.00;;;;;22.44;56.31;98514.34;4896847;28;104695;-88
2021/08/20 09:54:26;;;;;;;;;7.00;6.67;;;;;22.46;55.99;98516.81;4893773;28;102266;-88
2021/08/20 09:56:58;;;;;;;;;9.00;8.00;;;;;22.45;56.13;98509.66;4829786;28;103790;-88
2021/08/20 09:59:29;;;;;;;;;8.33;7.00;;;;;22.48;56.32;98520.13;4904246;28;102421;-88
2021/08/20 10:01:56;;;;;;;;;6.67;6.00;;;;;22.45;56.13;98509.66;4898366;28;104346;-88
2021/08/20 10:04:24;;;;;;;;;8.33;8.00;;;;;22.50;56.70;98512.41;4897214;28;102627;-87
2021/08/20 10:06:51;;;;;;;;;6.33;5.67;;;;;22.50;56.58;98512.41;4888197;28;102493;-87
2021/08/20 10:09:21;;;;;;;;;6.00;6.00;;;;;22.51;56.59;98509.38;4886219;28;103952;-87
2021/08/20 10:11:52;;;;;;;;;7.33;5.33;;;;;22.52;56.44;98511.00;4893458;28;104213;-87
2021/08/20 10:14:22;;;;;;;;;8.00;7.00;;;;;22.51;56.80;98509.38;4903032;28;102160;-87
2021/08/20 10:16:49;;;;;;;;;9.00;8.00;;;;;22.40;56.98;98479.34;4894531;28;102481;-86
2021/08/20 10:19:16;;;;;;;;;5.33;5.33;;;;;22.54;57.17;98510.72;4889567;28;102560;-86
2021/08/20 10:21:44;;;;;;;;;6.00;6.00;;;;;22.53;57.14;98507.16;4905453;28;104266;-87
2021/08/20 10:24:12;;;;;;;;;6.00;6.00;;;;;22.47;56.82;98496.44;4916329;28;102496;-86
2021/08/20 10:26:47;;;;;;;;;6.67;6.00;;;;;22.56;56.79;98509.34;4908339;28;103253;-87
2021/08/20 10:29:14;;;;;;;;;6.67;6.67;;;;;22.56;56.98;98506.56;4894926;28;102439;-87
2021/08/20 10:31:42;;;;;;;;;6.33;6.00;;;;;22.57;57.16;98501.91;4889920;28;108973;-86
2021/08/20 10:34:31;;;;;;;;;6.33;6.00;;;;;22.57;57.33;98496.38;4898589;28;102340;-87
2021/08/20 10:37:14;;;;;;;;;5.67;5.67;;;;;22.60;57.22;98509.63;4855968;28;102645;-87
2021/08/20 10:39:46;;;;;;;;;6.33;5.67;;;;;22.58;56.95;98498.88;4910251;28;102486;-87
2021/08/20 10:42:17;;;;;;;;;5.67;5.00;;;;;22.60;57.33;98501.34;4909393;28;108919;-87
2021/08/20 10:44:51;;;;;;;;;3.00;3.00;;;;;22.63;57.35;98506.28;4919979;28;102222;-87
2021/08/20 10:47:25;;;;;;;;;6.00;6.00;;;;;22.63;57.11;98501.63;4914028;28;102512;-87
2021/08/20 10:50:12;;;;;;;;;6.67;5.67;;;;;22.64;57.21;98503.28;4915511;28;102249;-86
2021/08/20 10:52:43;;;;;;;;;5.00;5.00;;;;;22.63;57.19;98498.84;4919896;28;104260;-87
2021/08/20 10:55:20;;;;;;;;;7.67;6.00;;;;;22.65;57.43;98504.06;4904649;28;102555;-87
2021/08/20 10:57:49;;;;;;;;;6.00;5.33;;;;;22.65;57.38;98498.56;4911695;28;103087;-86
2021/08/20 11:00:19;;;;;;;;;7.00;6.00;;;;;22.68;57.38;98498.00;4919649;28;103927;-87
2021/08/20 11:02:50;;;;;;;;;6.00;5.00;;;;;22.69;57.28;98494.97;4913413;28;104232;-87
2021/08/20 11:05:19;;;;;;;;;5.67;4.67;;;;;22.69;57.31;98499.66;4897665;28;103843;-87
2021/08/20 11:07:46;;;;;;;;;5.67;5.33;;;;;22.72;57.25;98499.13;4904154;28;102680;-86
2021/08/20 11:10:13;;;;;;;;;5.67;5.67;;;;;22.72;57.35;98493.59;4914507;28;102702;-87
2021/08/20 11:12:47;;;;;;;;;6.67;6.00;;;;;22.74;57.15;98490.59;4914905;28;103888;-87
2021/08/20 11:15:17;;;;;;;;;6.00;5.00;;;;;22.74;57.00;98491.38;4917759;28;102121;-87
2021/08/20 11:17:51;;;;;;;;;5.33;5.00;;;;;22.75;57.21;98484.75;4910779;28;102601;-87
2021/08/20 11:20:36;;;;;;;;;5.33;4.67;;;;;22.76;57.09;98489.19;4895881;28;102661;-87
2021/08/20 11:23:10;;;;;;;;;4.33;4.00;;;;;22.78;57.03;98488.91;4909771;28;104299;-87
2021/08/20 11:25:38;;;;;;;;;6.67;5.33;;;;;22.79;57.17;98485.84;4908965;28;110879;-87
2021/08/20 11:28:09;;;;;;;;;6.00;5.00;;;;;22.80;56.85;98482.00;4914188;28;102231;-87
2021/08/20 11:30:38;;;;;;;;;6.67;6.67;;;;;22.81;57.17;98471.78;4920919;28;103934;-87
2021/08/20 11:33:16;;;;;;;;;5.67;4.67;;;;;22.81;57.22;98477.31;4920510;28;104075;-87